createdAt,value
2018-11-12T00:01:17.904Z,2.20
2018-11-12T00:03:45.482Z,3.63
2018-11-12T00:06:13.641Z,2.73
2018-11-12T00:08:41.132Z,3.63
2018-11-12T00:11:09.101Z,3.03
2018-11-12T00:13:38.162Z,1.53
2018-11-12T00:16:05.934Z,4.60
2018-11-12T00:18:33.477Z,1.83
2018-11-12T00:21:01.183Z,1.90
2018-11-12T00:23:29.318Z,5.90
2018-11-12T00:25:57.355Z,2.77
2018-11-12T00:28:24.912Z,1.97
2018-11-12T00:30:52.401Z,1.60
2018-11-12T00:33:19.870Z,4.00
2018-11-12T00:35:48.293Z,4.20
2018-11-12T00:38:17.649Z,1.13
2018-11-12T00:40:45.115Z,3.90
2018-11-12T00:43:12.652Z,1.13
2018-11-12T00:45:40.143Z,1.83
2018-11-12T00:48:07.964Z,1.67
2018-11-12T00:50:35.961Z,2.53
2018-11-12T00:53:03.437Z,1.30
2018-11-12T00:55:30.897Z,6.90
2018-11-12T00:57:58.512Z,2.17
2018-11-12T01:00:26.414Z,1.93
2018-11-12T01:02:54.904Z,2.13
2018-11-12T01:05:22.490Z,3.43
2018-11-12T01:07:49.938Z,2.17
2018-11-12T01:10:18.388Z,2.50
2018-11-12T01:12:48.194Z,1.70
2018-11-12T01:15:17.298Z,4.10
2018-11-12T01:17:44.980Z,1.73
2018-11-12T01:20:13.655Z,1.63
2018-11-12T01:22:41.231Z,1.50
2018-11-12T01:25:11.352Z,2.27
2018-11-12T01:27:40.126Z,1.27
2018-11-12T01:30:09.913Z,7.90
2018-11-12T01:32:37.598Z,2.40
2018-11-12T01:35:06.449Z,1.50
2018-11-12T01:37:34.665Z,5.03
2018-11-12T01:40:02.637Z,3.23
2018-11-12T01:42:30.153Z,3.03
2018-11-12T01:44:57.649Z,2.37
2018-11-12T01:47:25.109Z,3.77
2018-11-12T01:49:53.796Z,2.70
2018-11-12T01:52:22.697Z,3.40
2018-11-12T01:54:50.197Z,2.00
2018-11-12T01:57:17.626Z,2.07
2018-11-12T01:59:45.069Z,2.07
2018-11-12T02:02:13.031Z,1.27
2018-11-12T02:04:40.922Z,2.70
2018-11-12T02:07:08.399Z,2.13
2018-11-12T02:09:35.841Z,3.50
2018-11-12T02:12:04.673Z,2.83
2018-11-12T02:14:32.724Z,4.50
2018-11-12T02:17:01.565Z,1.97
2018-11-12T02:19:29.164Z,1.83
2018-11-12T02:21:56.595Z,2.90
2018-11-12T02:24:24.112Z,2.03
2018-11-12T02:26:52.225Z,3.47
2018-11-12T02:29:20.128Z,1.63
2018-11-12T02:31:47.528Z,2.33
2018-11-12T02:34:15.118Z,5.90
2018-11-12T02:36:42.557Z,2.60
2018-11-12T02:39:10.962Z,5.70
2018-11-12T02:41:40.270Z,1.20
2018-11-12T02:44:08.169Z,3.43
2018-11-12T02:46:36.388Z,2.10
2018-11-12T02:49:03.983Z,0.97
2018-11-12T02:51:31.897Z,2.43
2018-11-12T02:53:59.826Z,3.40
2018-11-12T02:56:27.958Z,2.07
2018-11-12T02:58:55.495Z,2.77
2018-11-12T03:01:23.068Z,6.67
2018-11-12T03:03:52.542Z,3.13
2018-11-12T03:06:23.565Z,2.03
2018-11-12T03:08:51.053Z,4.87
2018-11-12T03:11:18.610Z,2.50
2018-11-12T03:13:46.040Z,1.97
2018-11-12T03:16:14.237Z,2.27
2018-11-12T03:18:43.585Z,2.13
2018-11-12T03:21:11.217Z,2.03
2018-11-12T03:23:38.644Z,3.73
2018-11-12T03:26:06.230Z,2.17
2018-11-12T03:28:35.661Z,1.93
2018-11-12T03:31:03.735Z,2.00
2018-11-12T03:33:31.263Z,5.00
2018-11-12T03:35:58.771Z,2.10
2018-11-12T03:38:26.212Z,3.10
2018-11-12T03:40:54.237Z,4.53
2018-11-12T03:43:22.198Z,3.50
2018-11-12T03:45:49.651Z,4.80
2018-11-12T03:48:17.187Z,6.20
2018-11-12T03:50:44.611Z,2.80
2018-11-12T03:53:12.500Z,5.97
2018-11-12T03:55:41.450Z,2.87
2018-11-12T03:58:08.893Z,3.37
2018-11-12T04:00:36.321Z,3.00
2018-11-12T04:03:03.870Z,3.47
2018-11-12T04:05:31.881Z,1.60
2018-11-12T04:07:59.755Z,2.87
2018-11-12T04:10:27.274Z,3.67
2018-11-12T04:12:54.673Z,3.27
2018-11-12T04:15:24.193Z,2.40
2018-11-12T04:17:53.547Z,3.03
2018-11-12T04:20:23.779Z,2.73
2018-11-12T04:23:09.737Z,2.00
2018-11-12T04:25:39.136Z,1.47
2018-11-12T04:28:07.090Z,5.37
2018-11-12T04:30:35.585Z,4.17
2018-11-12T04:33:03.173Z,3.27
2018-11-12T04:35:30.705Z,2.73
2018-11-12T04:37:58.455Z,2.17
2018-11-12T04:40:26.464Z,3.53
2018-11-12T04:42:55.726Z,2.87
2018-11-12T04:45:24.562Z,5.40
2018-11-12T04:47:52.619Z,2.33
2018-11-12T04:50:21.484Z,2.90
2018-11-12T04:52:51.401Z,6.73
2018-11-12T04:55:20.554Z,2.27
2018-11-12T04:57:48.082Z,2.90
2018-11-12T05:00:17.903Z,3.30
2018-11-12T05:02:45.392Z,4.27
2018-11-12T05:05:15.444Z,2.43
2018-11-12T05:07:44.393Z,2.50
2018-11-12T05:10:12.946Z,6.33
2018-11-12T05:12:40.988Z,4.30
2018-11-12T05:15:10.905Z,2.90
2018-11-12T05:17:39.358Z,4.47
2018-11-12T05:20:09.911Z,5.97
2018-11-12T05:22:37.653Z,3.33
2018-11-12T05:25:05.146Z,4.37
2018-11-12T05:27:32.759Z,3.30
2018-11-12T05:30:00.745Z,4.13
2018-11-12T05:32:30.357Z,4.33
2018-11-12T05:34:57.818Z,3.07
2018-11-12T05:37:25.367Z,3.60
2018-11-12T05:39:52.825Z,6.40
2018-11-12T05:42:20.857Z,5.07
2018-11-12T05:44:48.860Z,4.43
2018-11-12T05:47:16.234Z,3.33
2018-11-12T05:49:43.649Z,4.77
2018-11-12T05:52:11.736Z,3.53
2018-11-12T05:54:39.625Z,3.40
2018-11-12T05:57:09.129Z,4.60
2018-11-12T05:59:36.585Z,2.40
2018-11-12T06:02:04.136Z,5.07
2018-11-12T06:04:31.581Z,3.77
2018-11-12T06:06:59.536Z,5.07
2018-11-12T06:09:27.573Z,3.10
2018-11-12T06:11:55.144Z,5.57
2018-11-12T06:14:22.621Z,3.67
2018-11-12T06:16:50.126Z,5.47
2018-11-12T06:19:18.136Z,3.90
2018-11-12T06:21:47.061Z,4.20
2018-11-12T06:24:15.545Z,4.73
2018-11-12T06:26:43.032Z,4.60
2018-11-12T06:29:10.576Z,2.87
2018-11-12T06:31:39.019Z,4.03
2018-11-12T06:34:07.396Z,4.93
2018-11-12T06:36:34.975Z,3.60
2018-11-12T06:39:02.602Z,3.00
2018-11-12T06:41:30.101Z,3.60
2018-11-12T06:43:59.265Z,3.87
2018-11-12T06:46:28.179Z,7.07
2018-11-12T06:48:55.755Z,4.10
2018-11-12T06:51:23.315Z,4.20
2018-11-12T06:53:50.790Z,4.43
2018-11-12T06:56:18.802Z,3.20
2018-11-12T06:58:46.792Z,3.77
2018-11-12T07:01:15.285Z,5.17
2018-11-12T07:03:42.733Z,4.87
2018-11-12T07:06:10.341Z,6.20
2018-11-12T07:08:38.149Z,6.20
2018-11-12T07:11:07.688Z,5.23
2018-11-12T07:13:35.238Z,1.80
2018-11-12T07:16:02.738Z,4.70
2018-11-12T07:18:30.333Z,8.23
2018-11-12T07:20:58.361Z,4.13
2018-11-12T07:23:26.980Z,5.13
2018-11-12T07:25:54.492Z,4.80
2018-11-12T07:28:22.106Z,4.60
2018-11-12T07:30:49.785Z,5.97
2018-11-12T07:33:17.788Z,5.57
2018-11-12T07:35:47.340Z,5.60
2018-11-12T07:38:14.868Z,5.83
2018-11-12T07:40:42.374Z,6.20
2018-11-12T07:43:10.062Z,6.97
2018-11-12T07:45:37.999Z,3.80
2018-11-12T07:48:06.030Z,2.80
2018-11-12T07:50:34.279Z,5.20
2018-11-12T07:53:01.753Z,3.97
2018-11-12T07:55:29.326Z,5.37
2018-11-12T07:57:58.236Z,4.67
2018-11-12T08:00:32.502Z,3.87
2018-11-12T08:03:06.377Z,5.47
2018-11-12T08:05:34.274Z,3.33
2018-11-12T08:08:02.275Z,5.77
2018-11-12T08:10:30.316Z,7.63
2018-11-12T08:12:57.774Z,6.77
2018-11-12T08:15:25.341Z,4.23
2018-11-12T08:17:53.162Z,8.13
2018-11-12T08:20:23.211Z,5.07
2018-11-12T08:22:52.097Z,6.07
2018-11-12T08:25:21.202Z,7.33
2018-11-12T08:27:49.185Z,9.10
2018-11-12T08:30:19.050Z,7.73
2018-11-12T08:32:48.237Z,7.90
2018-11-12T08:35:16.593Z,6.83
2018-11-12T08:37:45.153Z,6.80
2018-11-12T08:40:14.232Z,7.97
2018-11-12T08:42:41.970Z,5.73
2018-11-12T08:45:10.497Z,9.87
2018-11-12T08:47:40.484Z,7.93
2018-11-12T08:50:10.109Z,11.17
2018-11-12T08:52:38.101Z,11.10
2018-11-12T08:55:06.482Z,10.00
2018-11-12T08:57:34.347Z,12.30
2018-11-12T09:00:02.322Z,9.50
2018-11-12T09:02:30.830Z,10.07
2018-11-12T09:04:58.509Z,9.73
2018-11-12T09:07:25.941Z,9.33
2018-11-12T09:09:54.585Z,13.53
2018-11-12T09:12:23.794Z,11.43
2018-11-12T09:14:52.130Z,10.97
2018-11-12T09:17:19.737Z,11.23
2018-11-12T09:19:47.262Z,11.73
2018-11-12T09:22:15.093Z,7.60
2018-11-12T09:24:42.994Z,9.00
2018-11-12T09:27:10.560Z,8.17
2018-11-12T09:29:38.203Z,11.10
2018-11-12T09:32:06.415Z,9.83
2018-11-12T09:34:34.317Z,10.67
2018-11-12T09:37:03.531Z,6.70
2018-11-12T09:39:31.409Z,6.50
2018-11-12T09:41:58.910Z,8.00
2018-11-12T09:44:27.151Z,6.57
2018-11-12T09:46:56.325Z,9.33
2018-11-12T09:49:24.392Z,7.80
2018-11-12T09:51:51.885Z,8.23
2018-11-12T09:54:20.779Z,6.93
2018-11-12T09:56:48.154Z,7.17
2018-11-12T09:59:16.174Z,6.10
2018-11-12T10:01:45.258Z,8.70
2018-11-12T10:04:13.667Z,8.27
2018-11-12T10:06:41.868Z,6.37
2018-11-12T10:09:12.038Z,11.13
2018-11-12T10:11:40.307Z,5.77
2018-11-12T10:14:08.731Z,8.00
2018-11-12T10:16:38.290Z,8.93
2018-11-12T10:19:02.366Z,10.37
2018-11-12T10:21:30.953Z,6.27
2018-11-12T10:23:59.160Z,4.50
2018-11-12T10:26:28.847Z,8.20
2018-11-12T10:28:57.078Z,8.80
2018-11-12T10:31:25.048Z,7.00
2018-11-12T10:33:53.254Z,9.93
2018-11-12T10:36:20.757Z,5.87
2018-11-12T10:38:49.058Z,5.50
2018-11-12T10:41:17.631Z,11.73
2018-11-12T10:43:45.331Z,4.83
2018-11-12T10:46:12.981Z,7.53
2018-11-12T10:48:40.800Z,6.00
2018-11-12T10:51:10.364Z,7.07
2018-11-12T10:53:38.385Z,4.50
2018-11-12T10:56:05.918Z,9.07
2018-11-12T10:58:35.445Z,6.33
2018-11-12T11:03:16.721Z,4.23
2018-11-12T11:05:47.653Z,3.63
2018-11-12T11:08:15.674Z,4.73
2018-11-12T11:10:44.418Z,3.13
2018-11-12T11:13:12.087Z,2.70
2018-11-12T11:15:40.058Z,8.50
2018-11-12T11:18:09.642Z,3.30
2018-11-12T11:20:37.146Z,5.97
2018-11-12T11:23:04.930Z,7.60
2018-11-12T11:25:33.696Z,4.00
2018-11-12T11:28:01.403Z,4.73
2018-11-12T11:30:30.179Z,7.47
2018-11-12T11:32:57.793Z,5.23
2018-11-12T11:35:25.357Z,6.53
2018-11-12T11:37:52.899Z,5.17
2018-11-12T11:40:21.785Z,3.93
2018-11-12T11:42:51.650Z,8.93
2018-11-12T11:45:19.800Z,5.13
2018-11-12T11:47:48.429Z,4.60
2018-11-12T11:50:18.235Z,4.60
2018-11-12T11:52:45.634Z,4.17
2018-11-12T11:55:15.482Z,6.90
2018-11-12T11:57:43.419Z,3.67
2018-11-12T12:00:17.201Z,6.73
2018-11-12T12:02:45.582Z,4.97
2018-11-12T12:05:13.954Z,3.83
2018-11-12T12:07:43.301Z,4.10
2018-11-12T12:10:12.080Z,3.90
2018-11-12T12:12:40.978Z,3.97
2018-11-12T12:15:11.346Z,3.70
2018-11-12T12:17:39.931Z,6.47
2018-11-12T12:20:10.673Z,3.43
2018-11-12T12:22:38.351Z,5.50
2018-11-12T12:25:07.312Z,4.80
2018-11-12T12:27:35.034Z,4.27
2018-11-12T12:30:02.702Z,4.37
2018-11-12T12:32:31.598Z,4.57
2018-11-12T12:34:59.474Z,3.17
2018-11-12T12:37:28.324Z,6.03
2018-11-12T12:39:56.059Z,3.80
2018-11-12T12:42:23.681Z,8.03
2018-11-12T12:44:52.462Z,4.67
2018-11-12T12:47:19.897Z,2.77
2018-11-12T12:49:47.337Z,5.33
2018-11-12T12:52:15.086Z,6.43
2018-11-12T12:54:43.269Z,4.00
2018-11-12T12:57:12.226Z,5.50
2018-11-12T12:59:40.856Z,2.07
2018-11-12T13:02:08.396Z,6.47
2018-11-12T13:04:35.976Z,4.77
2018-11-12T13:07:03.638Z,3.47
2018-11-12T13:09:32.273Z,8.50
2018-11-12T13:12:01.262Z,4.50
2018-11-12T13:14:31.034Z,5.87
2018-11-12T13:16:58.661Z,3.87
2018-11-12T13:19:26.982Z,3.87
2018-11-12T13:21:58.169Z,9.50
2018-11-12T13:24:25.692Z,7.70
2018-11-12T13:26:53.329Z,10.53
2018-11-12T13:29:21.063Z,8.80
2018-11-12T13:31:48.689Z,8.63
2018-11-12T13:34:17.234Z,12.43
2018-11-12T13:36:44.762Z,13.07
2018-11-12T13:39:13.075Z,10.73
2018-11-12T13:41:40.703Z,12.60
2018-11-12T13:44:08.705Z,9.50
2018-11-12T13:46:44.608Z,7.50
2018-11-12T13:49:12.187Z,9.27
2018-11-12T13:51:40.037Z,12.20
2018-11-12T13:54:08.348Z,11.37
2018-11-12T13:56:36.111Z,12.23
2018-11-12T13:59:04.905Z,15.57
2018-11-12T14:01:32.473Z,13.27
2018-11-12T14:04:01.866Z,15.47
2018-11-12T14:06:29.489Z,21.77
2018-11-12T14:08:57.087Z,12.67
2018-11-12T14:11:26.663Z,12.27
2018-11-12T14:13:54.916Z,14.90
2018-11-12T14:16:22.877Z,12.73
2018-11-12T14:18:50.436Z,12.57
2018-11-12T14:21:18.261Z,13.00
2018-11-12T14:23:46.797Z,11.53
2018-11-12T14:26:14.523Z,17.60
2018-11-12T14:28:42.260Z,19.40
2018-11-12T14:31:09.666Z,14.07
2018-11-12T14:33:37.203Z,14.70
2018-11-12T14:36:07.019Z,20.80
2018-11-12T14:38:34.520Z,13.60
2018-11-12T14:41:02.269Z,13.03
2018-11-12T14:43:29.907Z,13.70
2018-11-12T14:45:58.250Z,11.43
2018-11-12T14:48:26.993Z,15.77
2018-11-12T14:50:54.612Z,14.97
2018-11-12T14:53:22.201Z,14.57
2018-11-12T14:55:49.731Z,19.13
2018-11-12T14:58:17.343Z,14.97
2018-11-12T15:00:46.634Z,15.17
2018-11-12T15:03:14.470Z,15.53
2018-11-12T15:05:42.109Z,18.00
2018-11-12T15:08:09.612Z,12.20
2018-11-12T15:10:38.271Z,12.83
2018-11-12T15:13:06.738Z,13.93
2018-11-12T15:15:34.383Z,12.23
2018-11-12T15:18:02.727Z,15.40
2018-11-12T15:20:30.316Z,15.30
2018-11-12T15:22:57.927Z,16.63
2018-11-12T15:25:27.888Z,13.23
2018-11-12T15:27:55.485Z,16.33
2018-11-12T15:30:24.194Z,16.97
2018-11-12T15:32:53.110Z,13.77
2018-11-12T15:35:20.622Z,15.33
2018-11-12T15:37:49.618Z,13.73
2018-11-12T15:40:17.362Z,15.20
2018-11-12T15:42:44.998Z,15.47
2018-11-12T15:45:15.075Z,13.43
2018-11-12T15:47:43.782Z,14.07
2018-11-12T15:50:15.762Z,14.37
2018-11-12T15:52:44.038Z,11.37
2018-11-12T15:55:11.531Z,13.90
2018-11-12T15:57:39.403Z,11.00
2018-11-12T16:00:09.564Z,10.07
2018-11-12T16:02:38.075Z,13.50
2018-11-12T16:05:06.230Z,10.67
2018-11-12T16:07:34.022Z,12.57
2018-11-12T16:11:31.057Z,10.77
2018-11-12T16:14:00.790Z,16.70
2018-11-12T16:16:28.388Z,11.30
2018-11-12T16:18:55.910Z,8.37
2018-11-12T16:21:23.466Z,8.37
2018-11-12T16:23:51.743Z,9.87
2018-11-12T16:26:20.415Z,6.63
2018-11-12T16:28:48.082Z,9.73
2018-11-12T16:31:15.666Z,7.83
2018-11-12T16:33:43.283Z,9.60
2018-11-12T16:36:11.347Z,9.43
2018-11-12T16:38:40.510Z,10.10
2018-11-12T16:41:08.166Z,6.67
2018-11-12T16:43:35.683Z,8.20
2018-11-12T16:46:03.288Z,8.63
2018-11-12T16:48:30.862Z,10.30
2018-11-12T16:51:01.117Z,14.70
2018-11-12T16:53:28.870Z,12.73
2018-11-12T16:55:56.857Z,9.67
2018-11-12T16:58:24.574Z,10.70
2018-11-12T17:00:52.566Z,10.30
2018-11-12T17:03:22.153Z,13.43
2018-11-12T17:05:49.910Z,9.23
2018-11-12T17:08:18.883Z,12.30
2018-11-12T17:10:46.594Z,9.07
2018-11-12T17:13:15.285Z,10.13
2018-11-12T17:15:44.562Z,10.63
2018-11-12T17:18:12.183Z,8.43
2018-11-12T17:20:39.930Z,11.53
2018-11-12T17:23:07.542Z,10.10
2018-11-12T17:25:36.142Z,10.43
2018-11-12T17:28:05.153Z,8.97
2018-11-12T17:30:32.796Z,9.80
2018-11-12T17:33:08.842Z,12.17
2018-11-12T17:38:13.981Z,10.80
2018-11-12T17:40:41.541Z,11.60
2018-11-12T17:43:09.136Z,11.97
2018-11-12T17:45:47.751Z,12.10
2018-11-12T17:48:16.962Z,12.30
2018-11-12T17:50:44.485Z,11.67
2018-11-12T17:53:12.343Z,12.47
2018-11-12T17:55:40.061Z,13.37
2018-11-12T17:58:07.665Z,16.57
2018-11-12T18:00:37.390Z,12.63
2018-11-12T18:03:07.263Z,13.43
2018-11-12T18:05:34.875Z,13.50
2018-11-12T18:08:02.633Z,15.37
2018-11-12T18:10:30.295Z,14.13
2018-11-12T18:12:59.464Z,13.90
2018-11-12T18:15:27.700Z,13.43
2018-11-12T18:17:55.266Z,15.13
2018-11-12T18:20:25.255Z,13.23
2018-11-12T18:22:53.499Z,12.70
2018-11-12T18:25:21.961Z,19.03
2018-11-12T18:27:50.153Z,13.73
2018-11-12T18:30:21.320Z,15.40
2018-11-12T18:32:49.925Z,13.97
2018-11-12T18:35:17.520Z,12.77
2018-11-12T18:37:47.612Z,14.90
2018-11-12T18:40:16.506Z,15.47
2018-11-12T18:42:44.286Z,15.80
2018-11-12T18:45:14.082Z,15.17
2018-11-12T18:47:41.983Z,17.03
2018-11-12T18:50:15.115Z,14.90
2018-11-12T18:52:42.968Z,16.20
2018-11-12T18:55:11.732Z,15.83
2018-11-12T18:57:39.899Z,15.13
2018-11-12T19:00:12.838Z,17.47
2018-11-12T19:02:40.834Z,19.50
2018-11-12T19:05:14.458Z,15.00
2018-11-12T19:07:42.606Z,15.73
2018-11-12T19:10:13.626Z,15.57
2018-11-12T19:12:56.236Z,12.90
2018-11-12T19:15:29.049Z,13.63
2018-11-12T19:18:00.605Z,16.20
2018-11-12T19:20:28.139Z,14.87
2018-11-12T19:22:56.544Z,12.20
2018-11-12T19:25:24.281Z,12.77
2018-11-12T19:27:51.842Z,13.17
2018-11-12T19:30:20.974Z,12.87
2018-11-12T19:32:48.525Z,14.73
2018-11-12T19:35:20.369Z,16.73
2018-11-12T19:37:47.818Z,16.93
2018-11-12T19:40:35.695Z,18.97
2018-11-12T19:43:03.124Z,18.20
2018-11-12T19:45:31.554Z,16.60
2018-11-12T19:47:59.124Z,15.70
2018-11-12T19:50:27.846Z,16.73
2018-11-12T19:54:24.943Z,22.50
2018-11-12T19:56:54.933Z,16.43
2018-11-12T19:59:22.418Z,18.27
2018-11-12T20:01:50.040Z,17.87
2018-11-12T20:04:17.502Z,20.33
2018-11-12T20:06:45.024Z,20.20
2018-11-12T20:09:14.832Z,20.47
2018-11-12T20:11:42.341Z,24.23
2018-11-12T20:14:09.953Z,21.03
2018-11-12T20:16:37.538Z,24.37
2018-11-12T20:19:05.226Z,24.13
2018-11-12T20:21:34.112Z,22.17
2018-11-12T20:24:01.660Z,23.13
2018-11-12T20:26:29.121Z,23.73
2018-11-12T20:28:56.598Z,23.87
2018-11-12T20:31:25.040Z,24.90
2018-11-12T20:33:53.560Z,23.87
2018-11-12T20:36:21.082Z,25.77
2018-11-12T20:38:48.718Z,24.20
2018-11-12T20:41:16.220Z,26.43
2018-11-12T20:43:43.680Z,26.40
2018-11-12T20:46:13.311Z,25.40
2018-11-12T20:48:40.849Z,29.20
2018-11-12T20:51:08.405Z,25.90
2018-11-12T20:53:36.101Z,29.37
2018-11-12T20:56:03.862Z,26.10
2018-11-12T20:58:32.540Z,31.73
2018-11-12T21:01:00.026Z,31.80
2018-11-12T21:03:27.573Z,29.90
2018-11-12T21:05:55.104Z,29.63
2018-11-12T21:08:22.696Z,30.67
2018-11-12T21:10:51.972Z,33.53
2018-11-12T21:13:19.422Z,39.07
2018-11-12T21:15:47.030Z,35.53
2018-11-12T21:18:14.562Z,33.13
2018-11-12T21:20:42.085Z,37.90
2018-11-12T21:23:10.593Z,34.97
2018-11-12T21:25:38.117Z,37.80
2018-11-12T21:28:05.708Z,35.53
2018-11-12T21:30:33.371Z,39.93
2018-11-12T21:33:00.896Z,35.30
2018-11-12T21:35:30.802Z,37.57
2018-11-12T21:37:59.148Z,35.07
2018-11-12T21:40:27.714Z,38.77
2018-11-12T21:42:55.270Z,37.87
2018-11-12T21:45:24.305Z,38.40
2018-11-12T21:47:52.809Z,38.00
2018-11-12T21:50:21.134Z,41.23
2018-11-12T21:52:48.668Z,36.90
2018-11-12T21:55:16.195Z,38.83
2018-11-12T21:57:44.227Z,37.43
2018-11-12T22:00:17.269Z,34.43
2018-11-12T22:02:46.022Z,37.60
2018-11-12T22:05:14.085Z,40.77
2018-11-12T22:07:41.600Z,39.10
2018-11-12T22:10:10.935Z,39.40
2018-11-12T22:12:39.953Z,43.00
2018-11-12T22:15:07.845Z,41.97
2018-11-12T22:17:35.395Z,41.23
2018-11-12T22:20:03.046Z,42.67
2018-11-12T22:22:30.506Z,45.13
2018-11-12T22:24:59.372Z,39.57
2018-11-12T22:27:26.924Z,39.83
2018-11-12T22:29:54.393Z,37.77
2018-11-12T22:32:21.973Z,41.20
2018-11-12T22:34:49.621Z,38.40
2018-11-12T22:37:18.085Z,34.10
2018-11-12T22:39:45.600Z,27.30
2018-11-12T22:42:13.025Z,28.53
2018-11-12T22:44:40.578Z,30.07
2018-11-12T22:47:08.094Z,29.67
2018-11-12T22:49:39.225Z,33.80
2018-11-12T22:52:06.784Z,24.90
2018-11-12T22:54:34.287Z,25.30
2018-11-12T22:57:01.827Z,25.93
2018-11-12T22:59:29.430Z,29.23
2018-11-12T23:01:58.053Z,28.93
2018-11-12T23:04:25.630Z,25.43
2018-11-12T23:06:53.194Z,30.77
2018-11-12T23:09:20.739Z,23.43
2018-11-12T23:11:48.318Z,27.53
2018-11-12T23:14:17.303Z,21.60
2018-11-12T23:16:44.810Z,19.60
2018-11-12T23:19:12.318Z,20.87
2018-11-12T23:21:41.106Z,20.93
2018-11-12T23:24:08.605Z,16.57
2018-11-12T23:26:37.613Z,14.47
2018-11-12T23:29:05.431Z,13.90
2018-11-12T23:31:32.946Z,15.03
2018-11-12T23:34:00.552Z,16.33
2018-11-12T23:36:28.137Z,17.60
2018-11-12T23:38:57.301Z,15.40
2018-11-12T23:41:25.137Z,15.20
2018-11-12T23:43:52.697Z,17.37
2018-11-12T23:46:20.259Z,22.13
2018-11-12T23:48:48.022Z,21.97
2018-11-12T23:51:16.672Z,18.33
2018-11-12T23:53:44.172Z,18.43
2018-11-12T23:56:11.701Z,19.00
2018-11-12T23:58:40.465Z,17.40
